createdAt,value
2019-03-22T00:00:47.711Z,7.90
2019-03-22T00:03:27.657Z,9.00
2019-03-22T00:06:07.809Z,9.68
2019-03-22T00:08:47.402Z,8.28
2019-03-22T00:11:27.394Z,10.08
2019-03-22T00:14:05.556Z,9.20
2019-03-22T00:16:52.470Z,9.55
2019-03-22T00:19:32.685Z,10.00
2019-03-22T00:22:12.387Z,9.60
2019-03-22T00:24:52.311Z,9.80
2019-03-22T00:27:32.411Z,8.75
2019-03-22T00:30:12.608Z,10.50
2019-03-22T00:32:54.088Z,10.10
2019-03-22T00:35:34.654Z,9.73
2019-03-22T00:38:14.615Z,10.78
2019-03-22T00:40:54.688Z,11.85
2019-03-22T00:43:34.561Z,9.18
2019-03-22T00:46:14.792Z,9.45
2019-03-22T00:48:55.047Z,8.03
2019-03-22T00:51:34.956Z,8.90
2019-03-22T00:54:15.252Z,7.92
2019-03-22T00:56:55.377Z,8.08
2019-03-22T00:59:35.292Z,10.85
2019-03-22T01:02:15.409Z,14.20
2019-03-22T01:04:55.529Z,7.95
2019-03-22T01:07:35.487Z,9.18
2019-03-22T01:10:15.656Z,8.85
2019-03-22T01:12:55.950Z,8.23
2019-03-22T01:15:36.048Z,8.98
2019-03-22T01:18:17.489Z,9.63
2019-03-22T01:20:57.332Z,7.85
2019-03-22T01:23:37.680Z,7.58
2019-03-22T01:26:19.043Z,9.00
2019-03-22T01:28:58.628Z,10.32
2019-03-22T01:31:39.762Z,8.20
2019-03-22T01:34:19.527Z,8.80
2019-03-22T01:36:59.468Z,11.08
2019-03-22T01:39:39.693Z,9.90
2019-03-22T01:42:19.885Z,9.90
2019-03-22T01:44:59.638Z,10.08
2019-03-22T01:47:39.905Z,9.98
2019-03-22T01:50:20.251Z,8.88
2019-03-22T01:53:00.156Z,9.78
2019-03-22T01:55:40.472Z,12.55
2019-03-22T01:58:21.290Z,10.50
2019-03-22T02:01:01.704Z,9.03
2019-03-22T02:03:41.537Z,11.28
2019-03-22T02:06:21.810Z,10.15
2019-03-22T02:09:01.663Z,8.83
2019-03-22T02:11:43.917Z,12.30
2019-03-22T02:14:23.746Z,10.38
2019-03-22T02:17:04.011Z,12.10
2019-03-22T02:19:44.868Z,10.98
2019-03-22T02:22:24.935Z,9.43
2019-03-22T02:25:05.190Z,9.45
2019-03-22T02:27:44.820Z,11.18
2019-03-22T02:30:25.187Z,9.15
2019-03-22T02:33:05.431Z,10.13
2019-03-22T02:35:45.406Z,8.35
2019-03-22T02:38:25.240Z,10.03
2019-03-22T02:41:05.229Z,13.45
2019-03-22T02:43:43.607Z,11.88
2019-03-22T02:46:30.871Z,10.68
2019-03-22T02:49:11.147Z,9.38
2019-03-22T02:51:51.628Z,9.95
2019-03-22T02:54:31.620Z,9.95
2019-03-22T02:57:12.717Z,11.80
2019-03-22T02:59:52.557Z,8.75
2019-03-22T03:02:32.702Z,9.68
2019-03-22T03:05:12.749Z,9.85
2019-03-22T03:07:53.109Z,9.08
2019-03-22T03:10:33.215Z,9.25
2019-03-22T03:13:13.232Z,8.70
2019-03-22T03:15:53.118Z,11.12
2019-03-22T03:18:33.193Z,10.93
2019-03-22T03:21:13.073Z,11.93
2019-03-22T03:23:53.187Z,9.73
2019-03-22T03:26:33.622Z,9.83
2019-03-22T03:29:13.645Z,9.30
2019-03-22T03:31:53.611Z,13.25
2019-03-22T03:34:33.687Z,9.48
2019-03-22T03:37:13.591Z,10.30
2019-03-22T03:39:53.257Z,10.00
2019-03-22T03:42:33.733Z,9.93
2019-03-22T03:45:13.816Z,9.70
2019-03-22T03:47:53.988Z,11.03
2019-03-22T03:50:34.238Z,10.93
2019-03-22T03:53:13.969Z,10.32
2019-03-22T03:55:54.227Z,10.03
2019-03-22T03:58:34.161Z,11.22
2019-03-22T04:01:13.903Z,8.48
2019-03-22T04:03:54.205Z,10.10
2019-03-22T04:06:34.141Z,9.20
2019-03-22T04:09:14.035Z,9.58
2019-03-22T04:11:54.216Z,10.53
2019-03-22T04:14:33.916Z,10.32
2019-03-22T04:17:01.799Z,9.93
2019-03-22T04:19:41.855Z,10.10
2019-03-22T04:22:22.064Z,10.00
2019-03-22T04:25:02.106Z,9.28
2019-03-22T04:27:42.322Z,10.40
2019-03-22T04:30:22.037Z,9.70
2019-03-22T04:33:01.997Z,10.30
2019-03-22T04:35:42.045Z,10.35
2019-03-22T04:38:22.385Z,11.40
2019-03-22T04:41:02.224Z,10.85
2019-03-22T04:43:42.288Z,9.80
2019-03-22T04:46:22.254Z,10.18
2019-03-22T04:49:02.378Z,10.90
2019-03-22T04:51:42.478Z,10.32
2019-03-22T04:54:22.264Z,10.05
2019-03-22T04:57:02.366Z,10.60
2019-03-22T04:59:42.425Z,10.35
2019-03-22T05:02:22.172Z,10.15
2019-03-22T05:05:02.388Z,13.18
2019-03-22T05:07:42.533Z,9.98
2019-03-22T05:10:22.508Z,11.10
2019-03-22T05:13:03.845Z,12.30
2019-03-22T05:15:43.437Z,10.53
2019-03-22T05:18:23.683Z,13.53
2019-03-22T05:21:03.496Z,9.90
2019-03-22T05:23:43.518Z,8.95
2019-03-22T05:26:23.628Z,8.98
2019-03-22T05:29:03.917Z,8.80
2019-03-22T05:31:43.847Z,9.60
2019-03-22T05:34:23.960Z,11.45
2019-03-22T05:37:04.014Z,10.08
2019-03-22T05:39:43.941Z,8.70
2019-03-22T05:42:25.410Z,9.00
2019-03-22T05:45:05.572Z,10.78
2019-03-22T05:47:45.721Z,11.22
2019-03-22T05:50:24.074Z,12.70
2019-03-22T05:59:24.752Z,8.70
2019-03-22T06:02:04.641Z,9.90
2019-03-22T06:04:44.625Z,11.30
2019-03-22T06:07:24.925Z,11.05
2019-03-22T06:10:05.028Z,8.97
2019-03-22T06:12:45.376Z,8.20
2019-03-22T06:15:25.071Z,8.87
2019-03-22T06:18:05.239Z,10.80
2019-03-22T06:20:45.341Z,11.00
2019-03-22T06:23:25.170Z,10.67
2019-03-22T06:26:05.190Z,10.60
2019-03-22T06:28:45.386Z,9.87
2019-03-22T06:31:25.413Z,9.80
2019-03-22T06:34:05.626Z,9.23
2019-03-22T06:36:45.684Z,8.90
2019-03-22T06:39:25.936Z,10.60
2019-03-22T06:42:06.393Z,9.80
2019-03-22T06:44:46.056Z,9.73
2019-03-22T06:47:26.188Z,10.60
2019-03-22T06:50:06.382Z,9.97
2019-03-22T06:52:46.368Z,10.70
2019-03-22T06:55:26.287Z,11.47
2019-03-22T06:58:06.241Z,10.43
2019-03-22T07:00:46.544Z,10.80
2019-03-22T07:03:26.505Z,11.00
2019-03-22T07:06:06.279Z,9.60
2019-03-22T07:08:46.337Z,12.80
2019-03-22T07:11:26.380Z,10.57
2019-03-22T07:14:06.543Z,10.17
2019-03-22T07:16:47.005Z,9.50
2019-03-22T07:19:26.886Z,10.07
2019-03-22T07:22:07.043Z,8.60
2019-03-22T07:24:46.636Z,8.47
2019-03-22T07:27:26.562Z,12.43
2019-03-22T07:30:17.940Z,9.03
2019-03-22T07:32:48.888Z,9.33
2019-03-22T07:35:28.998Z,13.37
2019-03-22T07:38:08.987Z,9.23
2019-03-22T07:40:49.223Z,8.13
2019-03-22T07:43:29.195Z,9.70
2019-03-22T07:49:08.582Z,8.23
2019-03-22T07:51:48.641Z,9.10
2019-03-22T07:54:28.261Z,7.97
2019-03-22T07:57:08.348Z,8.13
2019-03-22T07:59:48.499Z,8.10
2019-03-22T08:02:28.040Z,7.57
2019-03-22T08:05:08.370Z,8.07
2019-03-22T08:07:48.691Z,7.40
2019-03-22T08:10:28.802Z,8.83
2019-03-22T08:13:09.063Z,8.20
2019-03-22T08:15:48.793Z,9.90
2019-03-22T08:18:28.929Z,8.17
2019-03-22T08:21:10.113Z,8.73
2019-03-22T08:23:50.051Z,8.60
2019-03-22T08:26:30.539Z,7.80
2019-03-22T08:29:10.398Z,7.50
2019-03-22T08:31:50.632Z,7.40
2019-03-22T08:34:30.790Z,8.00
2019-03-22T08:37:10.737Z,6.47
2019-03-22T08:39:51.367Z,7.77
2019-03-22T08:42:32.048Z,7.03
2019-03-22T08:45:11.856Z,7.60
2019-03-22T08:47:51.878Z,8.10
2019-03-22T08:50:31.699Z,7.90
2019-03-22T08:53:11.102Z,7.80
2019-03-22T08:55:52.112Z,8.10
2019-03-22T08:58:33.046Z,7.37
2019-03-22T09:01:13.658Z,7.00
2019-03-22T09:03:57.135Z,6.40
2019-03-22T09:06:37.170Z,7.07
2019-03-22T09:09:17.106Z,7.30
2019-03-22T09:11:57.250Z,6.43
2019-03-22T09:14:37.452Z,7.23
2019-03-22T09:17:17.951Z,7.30
2019-03-22T09:19:57.847Z,14.60
2019-03-22T09:22:37.820Z,10.10
2019-03-22T09:25:17.787Z,8.23
2019-03-22T09:27:57.785Z,7.40
2019-03-22T09:30:38.051Z,8.13
2019-03-22T09:33:19.088Z,7.90
2019-03-22T09:36:01.197Z,7.80
2019-03-22T09:38:31.011Z,8.97
2019-03-22T09:40:58.794Z,7.33
2019-03-22T09:43:40.177Z,7.10
2019-03-22T09:46:21.158Z,6.63
2019-03-22T09:48:59.479Z,8.03
2019-03-22T09:51:39.646Z,7.83
2019-03-22T09:54:19.944Z,6.93
2019-03-22T09:57:00.049Z,7.80
2019-03-22T09:59:40.007Z,7.83
2019-03-22T10:02:20.480Z,12.10
2019-03-22T10:05:00.470Z,8.00
2019-03-22T10:07:40.074Z,8.20
2019-03-22T10:10:20.419Z,7.80
2019-03-22T10:13:00.467Z,6.93
2019-03-22T10:15:40.514Z,9.50
2019-03-22T10:18:22.315Z,8.23
2019-03-22T10:21:02.705Z,9.20
2019-03-22T10:23:43.114Z,8.40
2019-03-22T10:26:24.895Z,8.07
2019-03-22T10:29:06.884Z,10.30
2019-03-22T10:31:46.681Z,10.77
2019-03-22T10:34:26.794Z,9.33
2019-03-22T10:37:06.727Z,9.67
2019-03-22T10:39:46.440Z,10.20
2019-03-22T10:42:26.497Z,8.70
2019-03-22T10:45:06.535Z,9.63
2019-03-22T10:47:48.686Z,9.63
2019-03-22T10:50:28.939Z,8.87
2019-03-22T10:55:48.726Z,9.20
2019-03-22T10:58:32.343Z,9.53
2019-03-22T11:01:12.852Z,10.20
2019-03-22T11:03:52.633Z,12.10
2019-03-22T11:06:33.270Z,10.87
2019-03-22T11:09:13.078Z,8.83
2019-03-22T11:11:53.639Z,8.67
2019-03-22T11:14:33.321Z,9.20
2019-03-22T11:17:13.476Z,9.03
2019-03-22T11:19:53.572Z,8.70
2019-03-22T11:22:33.754Z,9.27
2019-03-22T11:25:15.187Z,9.13
2019-03-22T11:28:02.920Z,11.43
2019-03-22T11:30:50.864Z,10.97
2019-03-22T11:33:18.837Z,8.67
2019-03-22T11:39:15.819Z,9.47
2019-03-22T11:41:54.499Z,9.57
2019-03-22T11:44:34.492Z,9.07
2019-03-22T11:47:17.730Z,10.37
2019-03-22T11:49:57.940Z,9.67
2019-03-22T11:52:37.597Z,8.10
2019-03-22T11:55:17.922Z,9.13
2019-03-22T11:57:57.642Z,8.93
2019-03-22T12:00:37.658Z,9.30
2019-03-22T12:03:16.310Z,9.20
2019-03-22T12:06:03.877Z,8.70
2019-03-22T12:11:33.099Z,8.03
2019-03-22T12:14:14.003Z,8.23
2019-03-22T12:16:56.627Z,8.30
2019-03-22T12:19:36.209Z,8.50
2019-03-22T12:22:16.861Z,7.70
2019-03-22T12:24:56.757Z,7.60
2019-03-22T12:27:38.297Z,7.47
2019-03-22T12:30:20.796Z,8.00
2019-03-22T12:33:00.452Z,9.03
2019-03-22T12:35:42.470Z,8.63
2019-03-22T12:38:23.716Z,8.17
2019-03-22T12:41:03.381Z,7.73
2019-03-22T12:43:43.449Z,6.63
2019-03-22T12:49:09.513Z,7.83
2019-03-22T12:51:49.940Z,8.80
2019-03-22T12:54:29.970Z,6.70
2019-03-22T12:57:10.569Z,7.07
2019-03-22T12:59:49.964Z,6.57
2019-03-22T13:02:30.163Z,8.67
2019-03-22T13:05:10.256Z,6.60
2019-03-22T13:07:50.172Z,6.60
2019-03-22T13:10:30.676Z,6.60
2019-03-22T13:13:10.517Z,6.57
2019-03-22T13:15:50.719Z,5.70
2019-03-22T13:18:33.157Z,6.60
2019-03-22T13:21:13.787Z,6.60
2019-03-22T13:23:53.835Z,6.60
2019-03-22T13:26:33.963Z,7.10
2019-03-22T13:29:14.625Z,6.53
2019-03-22T13:31:54.389Z,7.10
2019-03-22T13:34:34.331Z,5.73
2019-03-22T13:37:14.460Z,5.43
2019-03-22T13:39:55.280Z,5.53
2019-03-22T13:42:35.260Z,5.97
2019-03-22T13:45:15.482Z,6.30
2019-03-22T13:47:55.907Z,6.53
2019-03-22T13:50:35.715Z,5.30
2019-03-22T13:53:15.478Z,7.00
2019-03-22T13:55:55.954Z,5.90
2019-03-22T13:58:35.777Z,5.43
2019-03-22T14:01:16.324Z,6.17
2019-03-22T14:03:56.292Z,5.67
2019-03-22T14:06:36.429Z,6.13
2019-03-22T14:09:16.007Z,7.40
2019-03-22T14:11:56.202Z,7.00
2019-03-22T14:14:36.327Z,6.17
2019-03-22T14:17:16.459Z,5.10
2019-03-22T14:19:56.197Z,5.60
2019-03-22T14:22:36.305Z,5.83
2019-03-22T14:25:16.519Z,5.30
2019-03-22T14:27:56.491Z,5.97
2019-03-22T14:30:36.229Z,6.60
2019-03-22T14:33:16.445Z,5.83
2019-03-22T14:35:56.355Z,5.57
2019-03-22T14:38:36.356Z,5.67
2019-03-22T14:41:16.481Z,5.93
2019-03-22T14:43:58.403Z,5.60
2019-03-22T14:46:38.515Z,5.90
2019-03-22T14:49:18.607Z,4.70
2019-03-22T14:51:59.468Z,5.97
2019-03-22T14:54:39.513Z,5.20
2019-03-22T14:57:19.724Z,6.60
2019-03-22T14:59:59.632Z,5.50
2019-03-22T15:02:39.349Z,4.47
2019-03-22T15:05:17.856Z,4.77
2019-03-22T15:07:57.690Z,3.57
2019-03-22T15:10:37.548Z,4.43
2019-03-22T15:13:18.296Z,3.90
2019-03-22T15:19:26.780Z,5.97
2019-03-22T15:22:26.127Z,4.70
2019-03-22T15:25:25.489Z,5.40
2019-03-22T15:28:30.858Z,6.07
2019-03-22T15:31:24.506Z,6.37
2019-03-22T15:34:24.261Z,5.40
2019-03-22T15:37:15.401Z,6.10
2019-03-22T15:40:15.733Z,6.87
2019-03-22T15:42:55.496Z,6.93
2019-03-22T15:45:35.746Z,7.00
2019-03-22T15:48:15.396Z,6.60
2019-03-22T15:50:55.096Z,7.27
2019-03-22T15:53:35.283Z,6.13
2019-03-22T15:56:15.041Z,8.97
2019-03-22T15:58:55.287Z,7.30
2019-03-22T16:01:35.593Z,7.07
2019-03-22T16:04:15.228Z,6.80
2019-03-22T16:06:55.134Z,7.27
2019-03-22T16:09:34.710Z,7.30
2019-03-22T16:12:14.845Z,8.00
2019-03-22T16:14:54.941Z,8.03
2019-03-22T16:17:38.176Z,7.57
2019-03-22T16:20:17.687Z,7.27
2019-03-22T16:22:58.003Z,7.27
2019-03-22T16:25:39.086Z,7.30
2019-03-22T16:28:19.056Z,8.80
2019-03-22T16:30:59.040Z,8.17
2019-03-22T16:33:39.166Z,11.70
2019-03-22T16:36:20.253Z,9.97
2019-03-22T16:39:00.298Z,12.03
2019-03-22T16:41:40.264Z,6.67
2019-03-22T16:44:20.144Z,7.93
2019-03-22T16:47:00.150Z,7.87
2019-03-22T16:49:40.441Z,7.40
2019-03-22T16:52:20.511Z,7.07
2019-03-22T16:55:03.237Z,7.93
2019-03-22T16:57:43.170Z,8.63
2019-03-22T17:00:24.227Z,7.00
2019-03-22T17:03:04.311Z,7.57
2019-03-22T17:05:44.387Z,9.13
2019-03-22T17:08:24.583Z,7.90
2019-03-22T17:11:04.462Z,7.60
2019-03-22T17:13:44.368Z,7.47
2019-03-22T17:19:04.782Z,8.57
2019-03-22T17:21:45.001Z,6.87
2019-03-22T17:24:24.950Z,7.40
2019-03-22T17:27:05.106Z,9.20
2019-03-22T17:29:45.270Z,8.53
2019-03-22T17:32:24.990Z,7.10
2019-03-22T17:35:04.994Z,7.37
2019-03-22T17:37:45.256Z,7.90
2019-03-22T17:40:25.166Z,7.20
2019-03-22T17:43:05.269Z,9.03
2019-03-22T17:45:45.851Z,8.17
2019-03-22T17:48:26.491Z,7.07
2019-03-22T17:51:06.061Z,8.67
2019-03-22T17:53:46.086Z,7.30
2019-03-22T17:56:27.178Z,10.63
2019-03-22T17:59:07.217Z,7.77
2019-03-22T18:01:47.538Z,8.53
2019-03-22T18:04:27.635Z,8.33
2019-03-22T18:07:08.279Z,8.23
2019-03-22T18:09:48.619Z,7.97
2019-03-22T18:12:28.415Z,10.53
2019-03-22T18:15:09.047Z,9.43
2019-03-22T18:17:48.434Z,9.93
2019-03-22T18:20:32.215Z,7.30
2019-03-22T18:23:12.076Z,10.10
2019-03-22T18:25:51.804Z,8.70
2019-03-22T18:28:32.851Z,8.50
2019-03-22T18:31:12.844Z,6.90
2019-03-22T18:33:53.108Z,8.67
2019-03-22T18:36:34.168Z,9.90
2019-03-22T18:39:14.455Z,9.63
2019-03-22T18:41:54.676Z,9.53
2019-03-22T18:44:34.772Z,9.63
2019-03-22T18:47:14.868Z,10.27
2019-03-22T18:49:54.934Z,10.70
2019-03-22T18:52:34.896Z,10.97
2019-03-22T18:55:15.078Z,11.10
2019-03-22T18:57:55.116Z,11.43
2019-03-22T19:00:35.159Z,10.13
2019-03-22T19:03:15.515Z,10.43
2019-03-22T19:05:56.011Z,12.40
2019-03-22T19:08:36.024Z,12.10
2019-03-22T19:13:56.044Z,10.80
2019-03-22T19:16:36.413Z,12.20
2019-03-22T19:19:16.298Z,10.50
2019-03-22T19:21:56.372Z,11.73
2019-03-22T19:24:36.196Z,10.43
2019-03-22T19:27:16.401Z,12.80
2019-03-22T19:29:56.995Z,12.60
2019-03-22T19:32:36.440Z,9.93
2019-03-22T19:35:16.693Z,12.17
2019-03-22T19:37:56.958Z,11.10
2019-03-22T19:40:36.801Z,12.97
2019-03-22T19:43:16.507Z,11.20
2019-03-22T19:45:56.820Z,13.10
2019-03-22T19:48:36.858Z,12.00
2019-03-22T19:51:16.641Z,12.37
2019-03-22T19:53:56.768Z,18.37
2019-03-22T19:56:37.343Z,11.33
2019-03-22T19:59:16.993Z,12.80
2019-03-22T20:01:57.177Z,12.13
2019-03-22T20:04:36.872Z,13.10
2019-03-22T20:07:26.529Z,14.10
2019-03-22T20:09:59.099Z,13.33
2019-03-22T20:12:39.013Z,13.67
2019-03-22T20:15:19.324Z,16.10
2019-03-22T20:17:59.076Z,11.60
2019-03-22T20:20:38.900Z,10.80
2019-03-22T20:23:19.568Z,10.70
2019-03-22T20:25:59.087Z,9.83
2019-03-22T20:28:39.320Z,9.57
2019-03-22T20:31:19.322Z,9.67
2019-03-22T20:33:59.134Z,9.90
2019-03-22T20:36:39.181Z,9.73
2019-03-22T20:39:20.589Z,8.27
2019-03-22T20:42:00.641Z,8.90
2019-03-22T20:44:40.342Z,8.63
2019-03-22T20:47:20.305Z,8.87
2019-03-22T20:50:01.630Z,7.13
2019-03-22T20:52:42.165Z,8.93
2019-03-22T20:55:22.014Z,6.83
2019-03-22T20:58:03.026Z,8.07
2019-03-22T21:00:43.256Z,8.80
2019-03-22T21:03:23.164Z,7.73
2019-03-22T21:06:04.558Z,8.70
2019-03-22T21:08:44.845Z,8.40
2019-03-22T21:14:24.665Z,7.50
2019-03-22T21:17:04.874Z,18.47
2019-03-22T21:19:44.950Z,9.37
2019-03-22T21:22:24.777Z,8.43
2019-03-22T21:25:04.984Z,8.63
2019-03-22T21:27:44.795Z,6.73
2019-03-22T21:30:25.683Z,9.10
2019-03-22T21:33:05.160Z,7.00
2019-03-22T21:35:45.671Z,8.93
2019-03-22T21:38:25.362Z,8.23
2019-03-22T21:41:05.412Z,8.07
2019-03-22T21:43:45.659Z,7.10
2019-03-22T21:46:30.026Z,6.47
2019-03-22T21:49:10.129Z,7.27
2019-03-22T21:51:49.591Z,6.80
2019-03-22T21:54:29.479Z,10.00
2019-03-22T21:57:09.560Z,6.63
2019-03-22T21:59:50.885Z,6.80
2019-03-22T22:02:31.276Z,6.57
2019-03-22T22:05:11.040Z,7.33
2019-03-22T22:07:52.213Z,7.23
2019-03-22T22:10:32.984Z,8.80
2019-03-22T22:13:13.359Z,7.93
2019-03-22T22:15:53.568Z,7.67
2019-03-22T22:18:33.656Z,6.50
2019-03-22T22:21:13.435Z,7.00
2019-03-22T22:23:53.361Z,7.73
2019-03-22T22:26:33.754Z,7.90
2019-03-22T22:29:13.774Z,8.13
2019-03-22T22:31:53.909Z,11.03
2019-03-22T22:37:13.740Z,10.50
2019-03-22T22:39:53.984Z,9.13
2019-03-22T22:42:34.264Z,7.30
2019-03-22T22:45:13.789Z,9.50
2019-03-22T22:47:53.921Z,7.70
2019-03-22T22:50:33.821Z,9.40
2019-03-22T22:53:13.790Z,7.33
2019-03-22T22:55:54.231Z,11.73
2019-03-22T22:58:33.891Z,9.60
2019-03-22T23:01:14.122Z,8.10
2019-03-22T23:03:54.033Z,8.83
2019-03-22T23:06:33.903Z,14.10
2019-03-22T23:09:14.046Z,9.97
2019-03-22T23:11:54.172Z,8.80
2019-03-22T23:14:36.219Z,10.30
2019-03-22T23:17:16.472Z,7.53
2019-03-22T23:19:56.732Z,9.00
2019-03-22T23:22:36.671Z,10.43
2019-03-22T23:25:16.507Z,8.47
2019-03-22T23:27:56.603Z,7.37
2019-03-22T23:30:37.212Z,7.53
2019-03-22T23:33:17.357Z,8.95
2019-03-22T23:35:57.317Z,8.18
2019-03-22T23:38:37.080Z,12.33
2019-03-22T23:41:17.103Z,7.90
2019-03-22T23:43:57.242Z,10.40
2019-03-22T23:46:37.542Z,9.35
2019-03-22T23:49:17.497Z,11.28
2019-03-22T23:51:57.246Z,11.55
2019-03-22T23:54:37.467Z,10.43
2019-03-22T23:57:17.432Z,10.70
2019-03-22T23:59:57.193Z,11.50
